EJU42TT LFLL-LFBO
Flight info
| Callsign | EJU42TT |
|---|---|
| Flight time | 0h 45m |
| Altitude | 29000 |
| Route | REPSI DCT LERGA DCT MINSO DCT NARAK |
| Aircraft | A320/M-SDE3FGHIRWY/LB1 |
Departure
| Time | 2026-05-05 17:07 |
|---|---|
| Airport | Lyon Saint-Exupéry Airport (LFLL) |
Arrival
| Time | 2026-05-05 17:52 |
|---|---|
| Airport | Toulouse-Blagnac Airport (LFBO) |
| Time | Latitude | Longitude | Altitude | Speed | Heading |
|---|---|---|---|---|---|
| 2026-05-05 17:05 | 45.73721 | 5.08317 | 771 ft | 15 kts | 61° |
| 2026-05-05 17:05 | 45.73716 | 5.08448 | 772 ft | 14 kts | 105° |
| 2026-05-05 17:05 | 45.73692 | 5.08579 | 774 ft | 13 kts | 105° |
| 2026-05-05 17:05 | 45.73662 | 5.08702 | 775 ft | 11 kts | 140° |
| 2026-05-05 17:06 | 45.73584 | 5.08724 | 776 ft | 11 kts | 174° |
| 2026-05-05 17:06 | 45.73383 | 5.08748 | 780 ft | 61 kts | 175° |
| 2026-05-05 17:06 | 45.72716 | 5.08831 | 794 ft | 126 kts | 175° |
| 2026-05-05 17:06 | 45.71672 | 5.08959 | 1001 ft | 160 kts | 176° |
| 2026-05-05 17:07 | 45.70546 | 5.09100 | 1612 ft | 164 kts | 176° |
| 2026-05-05 17:07 | 45.69413 | 5.09248 | 2350 ft | 164 kts | 176° |
| 2026-05-05 17:07 | 45.68218 | 5.09400 | 2813 ft | 178 kts | 176° |
| 2026-05-05 17:07 | 45.66913 | 5.09551 | 3163 ft | 196 kts | 176° |
| 2026-05-05 17:08 | 45.65483 | 5.09710 | 3559 ft | 212 kts | 176° |
| 2026-05-05 17:08 | 45.63958 | 5.09886 | 3896 ft | 234 kts | 176° |
| 2026-05-05 17:08 | 45.62333 | 5.10060 | 4617 ft | 238 kts | 181° |
| 2026-05-05 17:08 | 45.60633 | 5.09632 | 5140 ft | 253 kts | 202° |
| 2026-05-05 17:09 | 45.59151 | 5.08217 | 5791 ft | 262 kts | 228° |
| 2026-05-05 17:09 | 45.58302 | 5.05938 | 6623 ft | 266 kts | 252° |
| 2026-05-05 17:09 | 45.57898 | 5.03338 | 7467 ft | 269 kts | 257° |
| 2026-05-05 17:09 | 45.57555 | 5.00684 | 8284 ft | 273 kts | 257° |
| 2026-05-05 17:10 | 45.57182 | 4.98025 | 9087 ft | 276 kts | 256° |
| 2026-05-05 17:10 | 45.56770 | 4.95320 | 9921 ft | 279 kts | 256° |
| 2026-05-05 17:10 | 45.56327 | 4.92535 | 10609 ft | 288 kts | 255° |
| 2026-05-05 17:10 | 45.55850 | 4.89628 | 11033 ft | 306 kts | 255° |
| 2026-05-05 17:11 | 45.55378 | 4.86589 | 11593 ft | 317 kts | 257° |
| 2026-05-05 17:11 | 45.55037 | 4.83442 | 12352 ft | 321 kts | 261° |
| 2026-05-05 17:11 | 45.54857 | 4.80203 | 13117 ft | 325 kts | 265° |
| 2026-05-05 17:11 | 45.54838 | 4.76956 | 13833 ft | 329 kts | 268° |
| 2026-05-05 17:12 | 45.54803 | 4.73683 | 14533 ft | 331 kts | 264° |
| 2026-05-05 17:12 | 45.54652 | 4.70378 | 15219 ft | 334 kts | 263° |
| 2026-05-05 17:12 | 45.54478 | 4.67031 | 15888 ft | 337 kts | 263° |
| 2026-05-05 17:12 | 45.54298 | 4.63671 | 16546 ft | 340 kts | 263° |
| 2026-05-05 17:13 | 45.54113 | 4.60291 | 17200 ft | 342 kts | 263° |
| 2026-05-05 17:13 | 45.53924 | 4.56896 | 17819 ft | 345 kts | 262° |
| 2026-05-05 17:13 | 45.53733 | 4.53468 | 18427 ft | 348 kts | 262° |
| 2026-05-05 17:13 | 45.53538 | 4.50010 | 19025 ft | 350 kts | 262° |
| 2026-05-05 17:14 | 45.53341 | 4.46528 | 19603 ft | 353 kts | 262° |
| 2026-05-05 17:14 | 45.53139 | 4.42994 | 20195 ft | 355 kts | 262° |
| 2026-05-05 17:14 | 45.52940 | 4.39508 | 20744 ft | 358 kts | 262° |
| 2026-05-05 17:14 | 45.52734 | 4.35943 | 21279 ft | 361 kts | 262° |
| 2026-05-05 17:15 | 45.52526 | 4.32378 | 21846 ft | 363 kts | 261° |
| 2026-05-05 17:15 | 45.52064 | 4.28825 | 22381 ft | 361 kts | 249° |
| 2026-05-05 17:15 | 45.51104 | 4.25500 | 22908 ft | 360 kts | 238° |
| 2026-05-05 17:15 | 45.49760 | 4.22520 | 23438 ft | 360 kts | 232° |
| 2026-05-05 17:16 | 45.48306 | 4.19615 | 23958 ft | 362 kts | 232° |
| 2026-05-05 17:16 | 45.46809 | 4.16660 | 24477 ft | 364 kts | 232° |
| 2026-05-05 17:16 | 45.45341 | 4.13755 | 25099 ft | 362 kts | 232° |
| 2026-05-05 17:16 | 45.43852 | 4.10807 | 25678 ft | 361 kts | 232° |
| 2026-05-05 17:17 | 45.42393 | 4.07916 | 26217 ft | 360 kts | 232° |
| 2026-05-05 17:17 | 45.40942 | 4.05038 | 26802 ft | 358 kts | 232° |
| 2026-05-05 17:17 | 45.39497 | 4.02179 | 27380 ft | 355 kts | 232° |
| 2026-05-05 17:17 | 45.38058 | 3.99329 | 27872 ft | 355 kts | 232° |
| 2026-05-05 17:18 | 45.36615 | 3.96476 | 28245 ft | 358 kts | 232° |
| 2026-05-05 17:18 | 45.35150 | 3.93584 | 28604 ft | 360 kts | 232° |
| 2026-05-05 17:18 | 45.33682 | 3.90683 | 28857 ft | 362 kts | 232° |
| 2026-05-05 17:18 | 45.32191 | 3.87745 | 28863 ft | 362 kts | 232° |
| 2026-05-05 17:19 | 45.29216 | 3.81879 | 28867 ft | 361 kts | 232° |
| 2026-05-05 17:19 | 45.26244 | 3.76037 | 28866 ft | 362 kts | 232° |
| 2026-05-05 17:20 | 45.23286 | 3.70096 | 28862 ft | 363 kts | 233° |
| 2026-05-05 17:20 | 45.20394 | 3.64209 | 28861 ft | 363 kts | 233° |
| 2026-05-05 17:21 | 45.17417 | 3.58169 | 28859 ft | 363 kts | 233° |
| 2026-05-05 17:22 | 45.12968 | 3.49172 | 28860 ft | 363 kts | 233° |
| 2026-05-05 17:22 | 45.09970 | 3.43124 | 28864 ft | 363 kts | 233° |
| 2026-05-05 17:23 | 45.07009 | 3.37168 | 28868 ft | 361 kts | 233° |
| 2026-05-05 17:23 | 45.04071 | 3.31270 | 28871 ft | 370 kts | 232° |
| 2026-05-05 17:24 | 45.01058 | 3.25233 | 28870 ft | 373 kts | 232° |
| 2026-05-05 17:24 | 44.98051 | 3.19212 | 28868 ft | 373 kts | 232° |
| 2026-05-05 17:25 | 44.95143 | 3.13408 | 28871 ft | 373 kts | 232° |
| 2026-05-05 17:25 | 44.92111 | 3.07365 | 28870 ft | 374 kts | 232° |
| 2026-05-05 17:26 | 44.89093 | 3.01363 | 28873 ft | 374 kts | 232° |
| 2026-05-05 17:26 | 44.86076 | 2.95382 | 28873 ft | 375 kts | 232° |
| 2026-05-05 17:27 | 44.83149 | 2.89255 | 28874 ft | 377 kts | 234° |
| 2026-05-05 17:27 | 44.80283 | 2.83041 | 28874 ft | 378 kts | 234° |
| 2026-05-05 17:28 | 44.77441 | 2.76884 | 28875 ft | 379 kts | 234° |
| 2026-05-05 17:28 | 44.74565 | 2.70662 | 28878 ft | 379 kts | 234° |
| 2026-05-05 17:29 | 44.71664 | 2.64400 | 28878 ft | 380 kts | 234° |
| 2026-05-05 17:29 | 44.68746 | 2.58113 | 28884 ft | 381 kts | 234° |
| 2026-05-05 17:30 | 44.65836 | 2.51855 | 28884 ft | 380 kts | 234° |
| 2026-05-05 17:30 | 44.62929 | 2.45622 | 28887 ft | 382 kts | 234° |
| 2026-05-05 17:30 | 44.61476 | 2.42506 | 28666 ft | 375 kts | 234° |
| 2026-05-05 17:31 | 44.60063 | 2.39479 | 28412 ft | 369 kts | 234° |
| 2026-05-05 17:31 | 44.58656 | 2.36467 | 28158 ft | 366 kts | 234° |
| 2026-05-05 17:31 | 44.57265 | 2.33500 | 27908 ft | 364 kts | 234° |
| 2026-05-05 17:31 | 44.55868 | 2.30520 | 27654 ft | 362 kts | 233° |
| 2026-05-05 17:32 | 44.54489 | 2.27583 | 27396 ft | 363 kts | 234° |
| 2026-05-05 17:32 | 44.53106 | 2.24640 | 27093 ft | 364 kts | 233° |
| 2026-05-05 17:32 | 44.51707 | 2.21665 | 26696 ft | 366 kts | 233° |
| 2026-05-05 17:32 | 44.50307 | 2.18691 | 26171 ft | 366 kts | 234° |
| 2026-05-05 17:33 | 44.48895 | 2.15695 | 25608 ft | 367 kts | 233° |
| 2026-05-05 17:33 | 44.47498 | 2.12732 | 25018 ft | 367 kts | 234° |
| 2026-05-05 17:33 | 44.46080 | 2.09730 | 24393 ft | 368 kts | 234° |
| 2026-05-05 17:33 | 44.44673 | 2.06755 | 23776 ft | 369 kts | 234° |
| 2026-05-05 17:34 | 44.43244 | 2.03731 | 23304 ft | 364 kts | 234° |
| 2026-05-05 17:34 | 44.41846 | 2.00781 | 22872 ft | 361 kts | 234° |
| 2026-05-05 17:34 | 44.40474 | 1.97886 | 22418 ft | 357 kts | 234° |
| 2026-05-05 17:34 | 44.39109 | 1.95009 | 21976 ft | 354 kts | 234° |
| 2026-05-05 17:35 | 44.37750 | 1.92145 | 21535 ft | 351 kts | 234° |
| 2026-05-05 17:35 | 44.36389 | 1.89284 | 21089 ft | 348 kts | 234° |
| 2026-05-05 17:35 | 44.35048 | 1.86464 | 20653 ft | 346 kts | 234° |
| 2026-05-05 17:35 | 44.33733 | 1.83705 | 20229 ft | 343 kts | 234° |
| 2026-05-05 17:36 | 44.32408 | 1.80927 | 19794 ft | 341 kts | 235° |
| 2026-05-05 17:36 | 44.31122 | 1.78239 | 19373 ft | 338 kts | 234° |
| 2026-05-05 17:36 | 44.29636 | 1.75646 | 18928 ft | 335 kts | 226° |
| 2026-05-05 17:36 | 44.27917 | 1.73435 | 18704 ft | 341 kts | 218° |
| 2026-05-05 17:37 | 44.26002 | 1.71501 | 18728 ft | 346 kts | 214° |
| 2026-05-05 17:37 | 44.23969 | 1.69547 | 18742 ft | 347 kts | 214° |
| 2026-05-05 17:37 | 44.22021 | 1.67691 | 18386 ft | 348 kts | 214° |
| 2026-05-05 17:37 | 44.20025 | 1.65792 | 17910 ft | 346 kts | 213° |
| 2026-05-05 17:38 | 44.17847 | 1.64351 | 17144 ft | 351 kts | 193° |
| 2026-05-05 17:38 | 44.15397 | 1.64070 | 16341 ft | 353 kts | 182° |
| 2026-05-05 17:38 | 44.12953 | 1.64043 | 15521 ft | 351 kts | 182° |
| 2026-05-05 17:38 | 44.10501 | 1.64020 | 14689 ft | 348 kts | 182° |
| 2026-05-05 17:39 | 44.08093 | 1.63998 | 13891 ft | 345 kts | 182° |
| 2026-05-05 17:39 | 44.05848 | 1.63977 | 13339 ft | 343 kts | 182° |
| 2026-05-05 17:39 | 44.03451 | 1.63953 | 12815 ft | 341 kts | 182° |
| 2026-05-05 17:39 | 44.01081 | 1.63929 | 12321 ft | 337 kts | 182° |
| 2026-05-05 17:40 | 43.98733 | 1.63904 | 11845 ft | 334 kts | 182° |
| 2026-05-05 17:40 | 43.96393 | 1.63879 | 11364 ft | 331 kts | 182° |
| 2026-05-05 17:40 | 43.94094 | 1.63855 | 10899 ft | 328 kts | 182° |
| 2026-05-05 17:40 | 43.91824 | 1.63832 | 10446 ft | 325 kts | 182° |
| 2026-05-05 17:41 | 43.89566 | 1.63810 | 10193 ft | 314 kts | 182° |
| 2026-05-05 17:41 | 43.87591 | 1.63793 | 10072 ft | 302 kts | 182° |
| 2026-05-05 17:41 | 43.85549 | 1.63772 | 9945 ft | 289 kts | 182° |
| 2026-05-05 17:41 | 43.83670 | 1.63753 | 9679 ft | 284 kts | 182° |
| 2026-05-05 17:42 | 43.81729 | 1.63732 | 9318 ft | 282 kts | 182° |
| 2026-05-05 17:42 | 43.79765 | 1.63711 | 8960 ft | 280 kts | 182° |
| 2026-05-05 17:42 | 43.77803 | 1.63689 | 8599 ft | 278 kts | 182° |
| 2026-05-05 17:42 | 43.75861 | 1.63668 | 8238 ft | 277 kts | 182° |
| 2026-05-05 17:43 | 43.73935 | 1.63647 | 7884 ft | 276 kts | 182° |
| 2026-05-05 17:43 | 43.72033 | 1.63627 | 7540 ft | 274 kts | 182° |
| 2026-05-05 17:43 | 43.70101 | 1.63608 | 7192 ft | 273 kts | 182° |
| 2026-05-05 17:43 | 43.68220 | 1.63588 | 6855 ft | 271 kts | 182° |
| 2026-05-05 17:44 | 43.66303 | 1.63569 | 6510 ft | 270 kts | 182° |
| 2026-05-05 17:44 | 43.64431 | 1.63550 | 6180 ft | 269 kts | 182° |
| 2026-05-05 17:44 | 43.62555 | 1.63521 | 5848 ft | 268 kts | 185° |
| 2026-05-05 17:44 | 43.60700 | 1.63335 | 5524 ft | 266 kts | 189° |
| 2026-05-05 17:45 | 43.58842 | 1.63036 | 5255 ft | 262 kts | 189° |
| 2026-05-05 17:45 | 43.57041 | 1.62738 | 5098 ft | 254 kts | 190° |
| 2026-05-05 17:45 | 43.55453 | 1.62473 | 5002 ft | 244 kts | 189° |
| 2026-05-05 17:45 | 43.53749 | 1.62189 | 4742 ft | 242 kts | 189° |
| 2026-05-05 17:46 | 43.52076 | 1.61871 | 4443 ft | 242 kts | 198° |
| 2026-05-05 17:46 | 43.50626 | 1.60813 | 4245 ft | 229 kts | 225° |
| 2026-05-05 17:46 | 43.49518 | 1.59301 | 4092 ft | 220 kts | 230° |
| 2026-05-05 17:46 | 43.48499 | 1.57761 | 3905 ft | 215 kts | 232° |
| 2026-05-05 17:47 | 43.47559 | 1.56140 | 3608 ft | 212 kts | 249° |
| 2026-05-05 17:47 | 43.47339 | 1.54198 | 3293 ft | 206 kts | 283° |
| 2026-05-05 17:47 | 43.47906 | 1.52406 | 3070 ft | 200 kts | 304° |
| 2026-05-05 17:47 | 43.48795 | 1.50967 | 3018 ft | 196 kts | 315° |
| 2026-05-05 17:48 | 43.49818 | 1.49762 | 2999 ft | 187 kts | 320° |
| 2026-05-05 17:48 | 43.50835 | 1.48712 | 3094 ft | 179 kts | 322° |
| 2026-05-05 17:48 | 43.51852 | 1.47676 | 2953 ft | 177 kts | 321° |
| 2026-05-05 17:48 | 43.52831 | 1.46667 | 2722 ft | 175 kts | 321° |
| 2026-05-05 17:49 | 43.53776 | 1.45685 | 2514 ft | 165 kts | 321° |
| 2026-05-05 17:49 | 43.54656 | 1.44768 | 2278 ft | 154 kts | 321° |
| 2026-05-05 17:49 | 43.55482 | 1.43906 | 2072 ft | 141 kts | 320° |
| 2026-05-05 17:49 | 43.56227 | 1.43128 | 1863 ft | 128 kts | 321° |
| 2026-05-05 17:50 | 43.56932 | 1.42390 | 1701 ft | 126 kts | 320° |
| 2026-05-05 17:50 | 43.57642 | 1.41648 | 1544 ft | 127 kts | 320° |
| 2026-05-05 17:50 | 43.58350 | 1.40910 | 1385 ft | 128 kts | 320° |
| 2026-05-05 17:50 | 43.59066 | 1.40163 | 1210 ft | 128 kts | 320° |
| 2026-05-05 17:51 | 43.59783 | 1.39417 | 1043 ft | 129 kts | 320° |
| 2026-05-05 17:51 | 43.60498 | 1.38666 | 872 ft | 129 kts | 320° |
| 2026-05-05 17:51 | 43.61208 | 1.37926 | 706 ft | 128 kts | 321° |
| 2026-05-05 17:51 | 43.61935 | 1.37173 | 547 ft | 130 kts | 320° |
| 2026-05-05 17:52 | 43.62579 | 1.36500 | 494 ft | 94 kts | 319° |
| 2026-05-05 17:52 | 43.63006 | 1.36056 | 507 ft | 69 kts | 323° |
| 2026-05-05 17:52 | 43.63357 | 1.35692 | 506 ft | 58 kts | 323° |
| 2026-05-05 17:52 | 43.63567 | 1.35504 | 499 ft | 22 kts | 20° |
| 2026-05-05 17:53 | 43.63640 | 1.35613 | 496 ft | 12 kts | 53° |
| 2026-05-05 17:53 | 43.63657 | 1.35644 | 495 ft | 2 kts | 53° |
| 2026-05-05 17:53 | 43.63677 | 1.35680 | 494 ft | 6 kts | 53° |
| 2026-05-05 17:53 | 43.63707 | 1.35735 | 494 ft | 8 kts | 53° |
| 2026-05-05 17:54 | 43.63747 | 1.35808 | 495 ft | 10 kts | 53° |
| 2026-05-05 17:54 | 43.63797 | 1.35900 | 495 ft | 13 kts | 53° |
| 2026-05-05 17:54 | 43.63797 | 1.36011 | 494 ft | 14 kts | 143° |
| 2026-05-05 17:54 | 43.63713 | 1.36098 | 493 ft | 15 kts | 143° |
| 2026-05-05 17:55 | 43.63623 | 1.36192 | 493 ft | 16 kts | 143° |
| 2026-05-05 17:55 | 43.63530 | 1.36288 | 495 ft | 16 kts | 143° |
| 2026-05-05 17:55 | 43.63443 | 1.36382 | 498 ft | 15 kts | 141° |
| 2026-05-05 17:55 | 43.63352 | 1.36473 | 498 ft | 17 kts | 143° |
| 2026-05-05 17:56 | 43.63248 | 1.36581 | 498 ft | 19 kts | 144° |
| 2026-05-05 17:56 | 43.63152 | 1.36682 | 500 ft | 16 kts | 145° |
| 2026-05-05 17:56 | 43.63058 | 1.36779 | 498 ft | 17 kts | 144° |
| 2026-05-05 17:56 | 43.62951 | 1.36889 | 494 ft | 20 kts | 145° |
| 2026-05-05 17:57 | 43.62853 | 1.36993 | 495 ft | 11 kts | 143° |
| 2026-05-05 17:57 | 43.62841 | 1.37082 | 496 ft | 10 kts | 55° |
| 2026-05-05 17:57 | 43.62885 | 1.37160 | 498 ft | 9 kts | 52° |
| 2026-05-05 17:57 | 43.62898 | 1.37248 | 500 ft | 9 kts | 119° |
| 2026-05-05 17:58 | 43.62837 | 1.37316 | 499 ft | 13 kts | 147° |
| 2026-05-05 17:58 | 43.62808 | 1.37422 | 498 ft | 11 kts | 71° |
| 2026-05-05 17:58 | 43.62835 | 1.37527 | 499 ft | 10 kts | 69° |
| 2026-05-05 17:58 | 43.62857 | 1.37577 | 500 ft | 3 kts | 53° |
| 2026-05-05 17:59 | 43.62867 | 1.37595 | 500 ft | 0 kts | 53° |